sensor_id;sensor_type;location;lat;lon;timestamp;pressure;altitude;pressure_sealevel;temperature
66403;BMP180;53212;52.112;5.144;2023-12-28T00:00:46;100711.60;;;9.90
66403;BMP180;53212;52.112;5.144;2023-12-28T00:03:13;100718.40;;;9.90
66403;BMP180;53212;52.112;5.144;2023-12-28T00:05:38;100713.80;;;9.90
66403;BMP180;53212;52.112;5.144;2023-12-28T00:08:04;100716.40;;;9.90
66403;BMP180;53212;52.112;5.144;2023-12-28T00:10:29;100711.60;;;9.90
66403;BMP180;53212;52.112;5.144;2023-12-28T00:12:55;100711.40;;;9.90
66403;BMP180;53212;52.112;5.144;2023-12-28T00:15:22;100718.00;;;9.90
66403;BMP180;53212;52.112;5.144;2023-12-28T00:17:47;100724.20;;;9.90
66403;BMP180;53212;52.112;5.144;2023-12-28T00:20:13;100730.40;;;9.90
66403;BMP180;53212;52.112;5.144;2023-12-28T00:22:38;100730.20;;;9.90
66403;BMP180;53212;52.112;5.144;2023-12-28T00:25:05;100728.80;;;9.90
66403;BMP180;53212;52.112;5.144;2023-12-28T00:27:31;100732.20;;;9.90
66403;BMP180;53212;52.112;5.144;2023-12-28T00:29:56;100752.40;;;9.90
66403;BMP180;53212;52.112;5.144;2023-12-28T00:32:22;100737.80;;;9.90
66403;BMP180;53212;52.112;5.144;2023-12-28T00:34:47;100744.00;;;9.90
66403;BMP180;53212;52.112;5.144;2023-12-28T00:37:12;100741.80;;;9.90
66403;BMP180;53212;52.112;5.144;2023-12-28T00:39:38;100738.40;;;9.90
66403;BMP180;53212;52.112;5.144;2023-12-28T00:42:04;100747.60;;;9.90
66403;BMP180;53212;52.112;5.144;2023-12-28T00:44:30;100751.40;;;9.90
66403;BMP180;53212;52.112;5.144;2023-12-28T00:46:55;100743.40;;;9.80
66403;BMP180;53212;52.112;5.144;2023-12-28T00:49:21;100749.20;;;9.80
66403;BMP180;53212;52.112;5.144;2023-12-28T00:51:46;100751.40;;;9.76
66403;BMP180;53212;52.112;5.144;2023-12-28T00:54:11;100748.20;;;9.70
66403;BMP180;53212;52.112;5.144;2023-12-28T00:56:37;100752.80;;;9.70
66403;BMP180;53212;52.112;5.144;2023-12-28T00:59:02;100748.80;;;9.70
66403;BMP180;53212;52.112;5.144;2023-12-28T01:01:28;100752.60;;;9.70
66403;BMP180;53212;52.112;5.144;2023-12-28T01:03:56;100745.80;;;9.70
66403;BMP180;53212;52.112;5.144;2023-12-28T01:06:22;100737.20;;;9.70
66403;BMP180;53212;52.112;5.144;2023-12-28T01:08:47;100738.40;;;9.70
66403;BMP180;53212;52.112;5.144;2023-12-28T01:11:13;100734.00;;;9.70
66403;BMP180;53212;52.112;5.144;2023-12-28T01:13:38;100740.00;;;9.70
66403;BMP180;53212;52.112;5.144;2023-12-28T01:16:04;100745.80;;;9.70
66403;BMP180;53212;52.112;5.144;2023-12-28T01:18:30;100747.40;;;9.64
66403;BMP180;53212;52.112;5.144;2023-12-28T01:20:55;100744.80;;;9.60
66403;BMP180;53212;52.112;5.144;2023-12-28T01:23:20;100751.60;;;9.60
66403;BMP180;53212;52.112;5.144;2023-12-28T01:25:46;100755.20;;;9.60
66403;BMP180;53212;52.112;5.144;2023-12-28T01:28:11;100751.80;;;9.60
66403;BMP180;53212;52.112;5.144;2023-12-28T01:30:37;100751.00;;;9.60
66403;BMP180;53212;52.112;5.144;2023-12-28T01:33:03;100748.40;;;9.60
66403;BMP180;53212;52.112;5.144;2023-12-28T01:35:29;100745.60;;;9.60
66403;BMP180;53212;52.112;5.144;2023-12-28T01:37:55;100751.20;;;9.60
66403;BMP180;53212;52.112;5.144;2023-12-28T01:40:20;100744.80;;;9.58
66403;BMP180;53212;52.112;5.144;2023-12-28T01:42:45;100753.20;;;9.60
66403;BMP180;53212;52.112;5.144;2023-12-28T01:45:11;100753.40;;;9.60
66403;BMP180;53212;52.112;5.144;2023-12-28T01:47:37;100762.60;;;9.60
66403;BMP180;53212;52.112;5.144;2023-12-28T01:50:03;100758.20;;;9.52
66403;BMP180;53212;52.112;5.144;2023-12-28T01:52:30;100749.20;;;9.50
66403;BMP180;53212;52.112;5.144;2023-12-28T01:54:56;100750.40;;;9.50
66403;BMP180;53212;52.112;5.144;2023-12-28T01:57:21;100760.20;;;9.50
66403;BMP180;53212;52.112;5.144;2023-12-28T01:59:47;100753.80;;;9.50
66403;BMP180;53212;52.112;5.144;2023-12-28T02:02:14;100756.60;;;9.50
66403;BMP180;53212;52.112;5.144;2023-12-28T02:04:39;100757.40;;;9.50
66403;BMP180;53212;52.112;5.144;2023-12-28T02:07:05;100756.40;;;9.50
66403;BMP180;53212;52.112;5.144;2023-12-28T02:09:31;100759.80;;;9.50
66403;BMP180;53212;52.112;5.144;2023-12-28T02:11:56;100763.00;;;9.50
66403;BMP180;53212;52.112;5.144;2023-12-28T02:14:22;100753.60;;;9.50
66403;BMP180;53212;52.112;5.144;2023-12-28T02:17:11;100757.80;;;9.50
66403;BMP180;53212;52.112;5.144;2023-12-28T02:19:50;100757.20;;;9.60
66403;BMP180;53212;52.112;5.144;2023-12-28T02:22:17;100763.80;;;9.60
66403;BMP180;53212;52.112;5.144;2023-12-28T02:25:08;100763.80;;;9.70
66403;BMP180;53212;52.112;5.144;2023-12-28T02:27:46;100746.20;;;9.70
66403;BMP180;53212;52.112;5.144;2023-12-28T02:30:14;100749.60;;;9.70
66403;BMP180;53212;52.112;5.144;2023-12-28T02:33:11;100747.40;;;9.80
66403;BMP180;53212;52.112;5.144;2023-12-28T02:35:55;100747.40;;;9.80
66403;BMP180;53212;52.112;5.144;2023-12-28T02:38:24;100740.00;;;9.80
66403;BMP180;53212;52.112;5.144;2023-12-28T02:40:50;100748.80;;;9.84
66403;BMP180;53212;52.112;5.144;2023-12-28T02:43:16;100743.60;;;9.90
66403;BMP180;53212;52.112;5.144;2023-12-28T02:45:42;100728.60;;;9.90
66403;BMP180;53212;52.112;5.144;2023-12-28T02:48:07;100728.00;;;9.90
66403;BMP180;53212;52.112;5.144;2023-12-28T02:50:34;100718.60;;;9.80
66403;BMP180;53212;52.112;5.144;2023-12-28T02:53:00;100721.00;;;9.80
66403;BMP180;53212;52.112;5.144;2023-12-28T02:55:26;100721.40;;;9.80
66403;BMP180;53212;52.112;5.144;2023-12-28T02:57:55;100721.80;;;9.70
66403;BMP180;53212;52.112;5.144;2023-12-28T03:00:21;100723.40;;;9.70
66403;BMP180;53212;52.112;5.144;2023-12-28T03:02:46;100719.60;;;9.70
66403;BMP180;53212;52.112;5.144;2023-12-28T03:05:12;100728.60;;;9.70
66403;BMP180;53212;52.112;5.144;2023-12-28T03:07:37;100736.60;;;9.68
66403;BMP180;53212;52.112;5.144;2023-12-28T03:10:04;100728.60;;;9.70
66403;BMP180;53212;52.112;5.144;2023-12-28T03:12:30;100741.20;;;9.70
66403;BMP180;53212;52.112;5.144;2023-12-28T03:14:55;100736.40;;;9.70
66403;BMP180;53212;52.112;5.144;2023-12-28T03:17:21;100736.00;;;9.80
66403;BMP180;53212;52.112;5.144;2023-12-28T03:19:47;100746.80;;;9.80
66403;BMP180;53212;52.112;5.144;2023-12-28T03:22:13;100742.00;;;9.80
66403;BMP180;53212;52.112;5.144;2023-12-28T03:24:39;100733.60;;;9.80
66403;BMP180;53212;52.112;5.144;2023-12-28T03:27:05;100739.40;;;9.80
66403;BMP180;53212;52.112;5.144;2023-12-28T03:29:31;100732.40;;;9.80
66403;BMP180;53212;52.112;5.144;2023-12-28T03:31:56;100720.60;;;9.80
66403;BMP180;53212;52.112;5.144;2023-12-28T03:34:23;100735.00;;;9.80
66403;BMP180;53212;52.112;5.144;2023-12-28T03:36:49;100725.60;;;9.80
66403;BMP180;53212;52.112;5.144;2023-12-28T03:39:15;100734.40;;;9.80
66403;BMP180;53212;52.112;5.144;2023-12-28T03:41:40;100722.00;;;9.78
66403;BMP180;53212;52.112;5.144;2023-12-28T03:44:06;100725.60;;;9.76
66403;BMP180;53212;52.112;5.144;2023-12-28T03:46:32;100715.80;;;9.70
66403;BMP180;53212;52.112;5.144;2023-12-28T03:48:57;100719.40;;;9.70
66403;BMP180;53212;52.112;5.144;2023-12-28T03:51:23;100711.80;;;9.70
66403;BMP180;53212;52.112;5.144;2023-12-28T03:53:48;100715.20;;;9.64
66403;BMP180;53212;52.112;5.144;2023-12-28T03:56:25;100708.60;;;9.60
66403;BMP180;53212;52.112;5.144;2023-12-28T03:58:52;100708.60;;;9.60
66403;BMP180;53212;52.112;5.144;2023-12-28T04:01:19;100717.60;;;9.50
66403;BMP180;53212;52.112;5.144;2023-12-28T04:03:45;100722.20;;;9.50
66403;BMP180;53212;52.112;5.144;2023-12-28T04:06:12;100724.20;;;9.50
66403;BMP180;53212;52.112;5.144;2023-12-28T04:08:43;100714.40;;;9.50
66403;BMP180;53212;52.112;5.144;2023-12-28T04:11:09;100721.40;;;9.50
66403;BMP180;53212;52.112;5.144;2023-12-28T04:13:35;100715.00;;;9.50
66403;BMP180;53212;52.112;5.144;2023-12-28T04:16:01;100711.40;;;9.54
66403;BMP180;53212;52.112;5.144;2023-12-28T04:18:27;100700.60;;;9.60
66403;BMP180;53212;52.112;5.144;2023-12-28T04:20:52;100714.40;;;9.60
66403;BMP180;53212;52.112;5.144;2023-12-28T04:23:18;100710.00;;;9.60
66403;BMP180;53212;52.112;5.144;2023-12-28T04:25:43;100714.40;;;9.62
66403;BMP180;53212;52.112;5.144;2023-12-28T04:28:09;100716.20;;;9.70
66403;BMP180;53212;52.112;5.144;2023-12-28T04:30:34;100724.60;;;9.70
66403;BMP180;53212;52.112;5.144;2023-12-28T04:33:01;100712.60;;;9.76
66403;BMP180;53212;52.112;5.144;2023-12-28T04:35:26;100714.00;;;9.80
66403;BMP180;53212;52.112;5.144;2023-12-28T04:37:52;100713.80;;;9.80
66403;BMP180;53212;52.112;5.144;2023-12-28T04:40:18;100726.80;;;9.88
66403;BMP180;53212;52.112;5.144;2023-12-28T04:42:43;100719.00;;;9.90
66403;BMP180;53212;52.112;5.144;2023-12-28T04:45:09;100727.60;;;9.90
66403;BMP180;53212;52.112;5.144;2023-12-28T04:47:36;100726.00;;;9.90
66403;BMP180;53212;52.112;5.144;2023-12-28T04:50:03;100720.00;;;9.96
66403;BMP180;53212;52.112;5.144;2023-12-28T04:52:30;100720.40;;;10.00
66403;BMP180;53212;52.112;5.144;2023-12-28T04:54:55;100724.80;;;10.00
66403;BMP180;53212;52.112;5.144;2023-12-28T04:57:21;100729.40;;;10.00
66403;BMP180;53212;52.112;5.144;2023-12-28T04:59:49;100723.60;;;10.00
66403;BMP180;53212;52.112;5.144;2023-12-28T05:02:15;100722.80;;;10.02
66403;BMP180;53212;52.112;5.144;2023-12-28T05:04:40;100722.00;;;10.10
66403;BMP180;53212;52.112;5.144;2023-12-28T05:07:05;100727.80;;;10.10
66403;BMP180;53212;52.112;5.144;2023-12-28T05:09:31;100728.40;;;10.10
66403;BMP180;53212;52.112;5.144;2023-12-28T05:11:56;100727.80;;;10.10
66403;BMP180;53212;52.112;5.144;2023-12-28T05:14:22;100720.40;;;10.12
66403;BMP180;53212;52.112;5.144;2023-12-28T05:16:47;100731.60;;;10.18
66403;BMP180;53212;52.112;5.144;2023-12-28T05:19:13;100727.00;;;10.20
66403;BMP180;53212;52.112;5.144;2023-12-28T05:21:38;100737.60;;;10.20
66403;BMP180;53212;52.112;5.144;2023-12-28T05:24:04;100733.80;;;10.20
66403;BMP180;53212;52.112;5.144;2023-12-28T05:26:30;100740.80;;;10.20
66403;BMP180;53212;52.112;5.144;2023-12-28T05:28:55;100739.20;;;10.30
66403;BMP180;53212;52.112;5.144;2023-12-28T05:31:21;100737.60;;;10.30
66403;BMP180;53212;52.112;5.144;2023-12-28T05:33:46;100734.00;;;10.30
66403;BMP180;53212;52.112;5.144;2023-12-28T05:36:12;100744.40;;;10.30
66403;BMP180;53212;52.112;5.144;2023-12-28T05:38:37;100738.00;;;10.30
66403;BMP180;53212;52.112;5.144;2023-12-28T05:41:02;100736.60;;;10.30
66403;BMP180;53212;52.112;5.144;2023-12-28T05:43:28;100741.20;;;10.30
66403;BMP180;53212;52.112;5.144;2023-12-28T05:45:53;100733.60;;;10.30
66403;BMP180;53212;52.112;5.144;2023-12-28T05:48:19;100733.00;;;10.30
66403;BMP180;53212;52.112;5.144;2023-12-28T05:50:44;100733.60;;;10.40
66403;BMP180;53212;52.112;5.144;2023-12-28T05:53:09;100737.40;;;10.40
66403;BMP180;53212;52.112;5.144;2023-12-28T05:55:42;100733.80;;;10.40
66403;BMP180;53212;52.112;5.144;2023-12-28T05:58:09;100742.00;;;10.40
66403;BMP180;53212;52.112;5.144;2023-12-28T06:00:35;100751.60;;;10.40
66403;BMP180;53212;52.112;5.144;2023-12-28T06:03:05;100750.00;;;10.40
66403;BMP180;53212;52.112;5.144;2023-12-28T06:05:31;100755.00;;;10.40
66403;BMP180;53212;52.112;5.144;2023-12-28T06:07:57;100757.00;;;10.40
66403;BMP180;53212;52.112;5.144;2023-12-28T06:10:22;100752.00;;;10.40
66403;BMP180;53212;52.112;5.144;2023-12-28T06:12:49;100756.20;;;10.40
66403;BMP180;53212;52.112;5.144;2023-12-28T06:15:14;100759.60;;;10.50
66403;BMP180;53212;52.112;5.144;2023-12-28T06:17:40;100742.00;;;10.50
66403;BMP180;53212;52.112;5.144;2023-12-28T06:20:06;100753.40;;;10.50
66403;BMP180;53212;52.112;5.144;2023-12-28T06:22:36;100747.00;;;10.50
66403;BMP180;53212;52.112;5.144;2023-12-28T06:25:01;100758.40;;;10.50
66403;BMP180;53212;52.112;5.144;2023-12-28T06:27:28;100763.20;;;10.50
66403;BMP180;53212;52.112;5.144;2023-12-28T06:29:54;100759.40;;;10.50
66403;BMP180;53212;52.112;5.144;2023-12-28T06:32:19;100772.20;;;10.50
66403;BMP180;53212;52.112;5.144;2023-12-28T06:34:46;100773.20;;;10.50
66403;BMP180;53212;52.112;5.144;2023-12-28T06:37:11;100775.80;;;10.50
66403;BMP180;53212;52.112;5.144;2023-12-28T06:39:37;100771.20;;;10.50
66403;BMP180;53212;52.112;5.144;2023-12-28T06:42:02;100785.80;;;10.50
66403;BMP180;53212;52.112;5.144;2023-12-28T06:44:28;100776.20;;;10.54
66403;BMP180;53212;52.112;5.144;2023-12-28T06:46:53;100780.40;;;10.58
66403;BMP180;53212;52.112;5.144;2023-12-28T06:49:19;100773.40;;;10.56
66403;BMP180;53212;52.112;5.144;2023-12-28T06:51:44;100776.60;;;10.58
66403;BMP180;53212;52.112;5.144;2023-12-28T06:54:11;100768.20;;;10.60
66403;BMP180;53212;52.112;5.144;2023-12-28T06:56:37;100764.80;;;10.60
66403;BMP180;53212;52.112;5.144;2023-12-28T06:59:02;100776.80;;;10.58
66403;BMP180;53212;52.112;5.144;2023-12-28T07:01:28;100768.40;;;10.50
66403;BMP180;53212;52.112;5.144;2023-12-28T07:03:54;100773.00;;;10.50
66403;BMP180;53212;52.112;5.144;2023-12-28T07:06:19;100776.80;;;10.50
66403;BMP180;53212;52.112;5.144;2023-12-28T07:08:44;100791.40;;;10.50
66403;BMP180;53212;52.112;5.144;2023-12-28T07:11:10;100793.40;;;10.50
66403;BMP180;53212;52.112;5.144;2023-12-28T07:13:36;100789.40;;;10.50
66403;BMP180;53212;52.112;5.144;2023-12-28T07:16:02;100795.60;;;10.50
66403;BMP180;53212;52.112;5.144;2023-12-28T07:18:27;100801.40;;;10.48
66403;BMP180;53212;52.112;5.144;2023-12-28T07:20:53;100799.40;;;10.44
66403;BMP180;53212;52.112;5.144;2023-12-28T07:23:19;100814.00;;;10.40
66403;BMP180;53212;52.112;5.144;2023-12-28T07:25:44;100805.40;;;10.40
66403;BMP180;53212;52.112;5.144;2023-12-28T07:28:10;100822.40;;;10.30
66403;BMP180;53212;52.112;5.144;2023-12-28T07:30:36;100812.80;;;10.30
66403;BMP180;53212;52.112;5.144;2023-12-28T07:33:03;100822.80;;;10.26
66403;BMP180;53212;52.112;5.144;2023-12-28T07:35:28;100825.60;;;10.28
66403;BMP180;53212;52.112;5.144;2023-12-28T07:37:53;100830.20;;;10.26
66403;BMP180;53212;52.112;5.144;2023-12-28T07:40:19;100825.40;;;10.28
66403;BMP180;53212;52.112;5.144;2023-12-28T07:42:45;100820.20;;;10.30
66403;BMP180;53212;52.112;5.144;2023-12-28T07:45:10;100833.20;;;10.30
66403;BMP180;53212;52.112;5.144;2023-12-28T07:47:36;100842.80;;;10.30
66403;BMP180;53212;52.112;5.144;2023-12-28T07:50:01;100850.40;;;10.30
66403;BMP180;53212;52.112;5.144;2023-12-28T07:52:28;100860.00;;;10.30
66403;BMP180;53212;52.112;5.144;2023-12-28T07:54:53;100858.80;;;10.30
66403;BMP180;53212;52.112;5.144;2023-12-28T07:57:19;100862.60;;;10.32
66403;BMP180;53212;52.112;5.144;2023-12-28T07:59:44;100864.60;;;10.36
66403;BMP180;53212;52.112;5.144;2023-12-28T08:02:10;100862.40;;;10.40
66403;BMP180;53212;52.112;5.144;2023-12-28T08:04:35;100862.40;;;10.40
66403;BMP180;53212;52.112;5.144;2023-12-28T08:07:00;100859.20;;;10.40
66403;BMP180;53212;52.112;5.144;2023-12-28T08:09:26;100851.80;;;10.40
66403;BMP180;53212;52.112;5.144;2023-12-28T08:11:52;100854.80;;;10.40
66403;BMP180;53212;52.112;5.144;2023-12-28T08:14:17;100861.40;;;10.42
66403;BMP180;53212;52.112;5.144;2023-12-28T08:16:43;100870.00;;;10.48
66403;BMP180;53212;52.112;5.144;2023-12-28T08:19:08;100863.00;;;10.50
66403;BMP180;53212;52.112;5.144;2023-12-28T08:21:33;100857.20;;;10.50
66403;BMP180;53212;52.112;5.144;2023-12-28T08:23:59;100862.40;;;10.50
66403;BMP180;53212;52.112;5.144;2023-12-28T08:26:24;100877.20;;;10.60
66403;BMP180;53212;52.112;5.144;2023-12-28T08:28:50;100861.60;;;10.60
66403;BMP180;53212;52.112;5.144;2023-12-28T08:31:15;100876.40;;;10.60
66403;BMP180;53212;52.112;5.144;2023-12-28T08:33:41;100881.80;;;10.64
66403;BMP180;53212;52.112;5.144;2023-12-28T08:36:07;100877.80;;;10.70
66403;BMP180;53212;52.112;5.144;2023-12-28T08:38:33;100878.80;;;10.70
66403;BMP180;53212;52.112;5.144;2023-12-28T08:40:58;100885.20;;;10.70
66403;BMP180;53212;52.112;5.144;2023-12-28T08:43:24;100882.60;;;10.70
66403;BMP180;53212;52.112;5.144;2023-12-28T08:45:49;100891.40;;;10.70
66403;BMP180;53212;52.112;5.144;2023-12-28T08:48:15;100878.60;;;10.70
66403;BMP180;53212;52.112;5.144;2023-12-28T08:50:40;100884.60;;;10.70
66403;BMP180;53212;52.112;5.144;2023-12-28T08:53:06;100889.80;;;10.74
66403;BMP180;53212;52.112;5.144;2023-12-28T08:55:31;100892.60;;;10.70
66403;BMP180;53212;52.112;5.144;2023-12-28T08:57:59;100894.40;;;10.80
66403;BMP180;53212;52.112;5.144;2023-12-28T09:00:24;100885.60;;;10.80
66403;BMP180;53212;52.112;5.144;2023-12-28T09:02:50;100900.00;;;10.80
66403;BMP180;53212;52.112;5.144;2023-12-28T09:05:15;100902.60;;;10.80
66403;BMP180;53212;52.112;5.144;2023-12-28T09:07:41;100893.60;;;10.80
66403;BMP180;53212;52.112;5.144;2023-12-28T09:10:11;100898.60;;;10.82
66403;BMP180;53212;52.112;5.144;2023-12-28T09:12:36;100891.20;;;10.80
66403;BMP180;53212;52.112;5.144;2023-12-28T09:15:07;100886.40;;;10.80
66403;BMP180;53212;52.112;5.144;2023-12-28T09:17:34;100900.00;;;10.80
66403;BMP180;53212;52.112;5.144;2023-12-28T09:19:59;100899.80;;;10.80
66403;BMP180;53212;52.112;5.144;2023-12-28T09:22:26;100906.40;;;10.80
66403;BMP180;53212;52.112;5.144;2023-12-28T09:24:52;100900.80;;;10.80
66403;BMP180;53212;52.112;5.144;2023-12-28T09:27:17;100910.40;;;10.80
66403;BMP180;53212;52.112;5.144;2023-12-28T09:29:43;100917.80;;;10.80
66403;BMP180;53212;52.112;5.144;2023-12-28T09:32:08;100916.40;;;10.90
66403;BMP180;53212;52.112;5.144;2023-12-28T09:34:34;100921.00;;;11.00
66403;BMP180;53212;52.112;5.144;2023-12-28T09:36:59;100925.00;;;11.10
66403;BMP180;53212;52.112;5.144;2023-12-28T09:39:24;100923.00;;;11.20
66403;BMP180;53212;52.112;5.144;2023-12-28T09:41:59;100911.20;;;11.20
66403;BMP180;53212;52.112;5.144;2023-12-28T09:44:28;100919.00;;;11.22
66403;BMP180;53212;52.112;5.144;2023-12-28T09:46:54;100913.40;;;11.20
66403;BMP180;53212;52.112;5.144;2023-12-28T09:49:21;100919.80;;;11.30
66403;BMP180;53212;52.112;5.144;2023-12-28T09:51:48;100928.00;;;11.30
66403;BMP180;53212;52.112;5.144;2023-12-28T09:54:13;100922.80;;;11.30
66403;BMP180;53212;52.112;5.144;2023-12-28T09:56:40;100929.60;;;11.20
66403;BMP180;53212;52.112;5.144;2023-12-28T09:59:07;100932.40;;;11.20
66403;BMP180;53212;52.112;5.144;2023-12-28T10:01:34;100937.00;;;11.20
66403;BMP180;53212;52.112;5.144;2023-12-28T10:04:00;100934.20;;;11.22
66403;BMP180;53212;52.112;5.144;2023-12-28T10:06:28;100945.40;;;11.20
66403;BMP180;53212;52.112;5.144;2023-12-28T10:08:54;100945.00;;;11.20
66403;BMP180;53212;52.112;5.144;2023-12-28T10:11:21;100944.20;;;11.20
66403;BMP180;53212;52.112;5.144;2023-12-28T10:13:48;100951.60;;;11.20
66403;BMP180;53212;52.112;5.144;2023-12-28T10:16:16;100957.00;;;11.10
66403;BMP180;53212;52.112;5.144;2023-12-28T10:18:43;100954.40;;;11.10
66403;BMP180;53212;52.112;5.144;2023-12-28T10:21:09;100956.40;;;11.10
66403;BMP180;53212;52.112;5.144;2023-12-28T10:23:35;100959.00;;;11.10
66403;BMP180;53212;52.112;5.144;2023-12-28T10:26:00;100957.80;;;11.10
66403;BMP180;53212;52.112;5.144;2023-12-28T10:28:27;100952.80;;;11.10
66403;BMP180;53212;52.112;5.144;2023-12-28T10:30:55;100954.80;;;11.12
66403;BMP180;53212;52.112;5.144;2023-12-28T10:33:23;100954.40;;;11.20
66403;BMP180;53212;52.112;5.144;2023-12-28T10:35:53;100953.60;;;11.28
66403;BMP180;53212;52.112;5.144;2023-12-28T10:38:24;100938.40;;;11.30
66403;BMP180;53212;52.112;5.144;2023-12-28T10:40:51;100952.80;;;11.40
66403;BMP180;53212;52.112;5.144;2023-12-28T10:43:19;100954.60;;;11.50
66403;BMP180;53212;52.112;5.144;2023-12-28T10:45:51;100962.60;;;11.60
66403;BMP180;53212;52.112;5.144;2023-12-28T10:48:29;100957.80;;;11.70
66403;BMP180;53212;52.112;5.144;2023-12-28T10:50:58;100950.80;;;11.60
66403;BMP180;53212;52.112;5.144;2023-12-28T10:53:41;100944.60;;;11.70
66403;BMP180;53212;52.112;5.144;2023-12-28T10:56:31;100953.00;;;11.70
66403;BMP180;53212;52.112;5.144;2023-12-28T10:59:39;100955.40;;;11.72
66403;BMP180;53212;52.112;5.144;2023-12-28T11:02:09;100954.00;;;11.76
66403;BMP180;53212;52.112;5.144;2023-12-28T11:04:50;100951.00;;;11.78
66403;BMP180;53212;52.112;5.144;2023-12-28T11:07:18;100950.00;;;11.70
66403;BMP180;53212;52.112;5.144;2023-12-28T11:09:44;100952.40;;;11.70
66403;BMP180;53212;52.112;5.144;2023-12-28T11:12:11;100938.60;;;11.70
66403;BMP180;53212;52.112;5.144;2023-12-28T11:14:41;100946.80;;;11.70
66403;BMP180;53212;52.112;5.144;2023-12-28T11:17:09;100951.20;;;11.70
66403;BMP180;53212;52.112;5.144;2023-12-28T11:19:35;100952.20;;;11.70
66403;BMP180;53212;52.112;5.144;2023-12-28T11:22:03;100939.00;;;11.70
66403;BMP180;53212;52.112;5.144;2023-12-28T11:24:29;100942.00;;;11.70
66403;BMP180;53212;52.112;5.144;2023-12-28T11:26:56;100936.80;;;11.72
66403;BMP180;53212;52.112;5.144;2023-12-28T11:29:24;100935.60;;;11.70
66403;BMP180;53212;52.112;5.144;2023-12-28T11:31:54;100923.80;;;11.80
66403;BMP180;53212;52.112;5.144;2023-12-28T11:34:31;100934.40;;;11.80
66403;BMP180;53212;52.112;5.144;2023-12-28T11:37:04;100932.40;;;11.80
66403;BMP180;53212;52.112;5.144;2023-12-28T11:39:31;100929.00;;;11.80
66403;BMP180;53212;52.112;5.144;2023-12-28T11:42:04;100932.20;;;11.80
66403;BMP180;53212;52.112;5.144;2023-12-28T11:44:40;100921.20;;;11.70
66403;BMP180;53212;52.112;5.144;2023-12-28T11:47:21;100928.40;;;11.62
66403;BMP180;53212;52.112;5.144;2023-12-28T11:49:48;100938.60;;;11.60
66403;BMP180;53212;52.112;5.144;2023-12-28T11:52:28;100925.80;;;11.60
66403;BMP180;53212;52.112;5.144;2023-12-28T11:54:54;100928.00;;;11.60
66403;BMP180;53212;52.112;5.144;2023-12-28T11:57:21;100924.60;;;11.50
66403;BMP180;53212;52.112;5.144;2023-12-28T11:59:56;100919.00;;;11.50
66403;BMP180;53212;52.112;5.144;2023-12-28T12:02:22;100921.20;;;11.50
66403;BMP180;53212;52.112;5.144;2023-12-28T12:04:49;100934.20;;;11.50
66403;BMP180;53212;52.112;5.144;2023-12-28T12:07:15;100926.60;;;11.50
66403;BMP180;53212;52.112;5.144;2023-12-28T12:09:42;100917.40;;;11.60
66403;BMP180;53212;52.112;5.144;2023-12-28T12:12:08;100925.60;;;11.70
66403;BMP180;53212;52.112;5.144;2023-12-28T12:14:34;100934.40;;;11.76
66403;BMP180;53212;52.112;5.144;2023-12-28T12:17:00;100914.60;;;11.80
66403;BMP180;53212;52.112;5.144;2023-12-28T12:19:27;100914.60;;;11.96
66403;BMP180;53212;52.112;5.144;2023-12-28T12:21:53;100918.00;;;11.92
66403;BMP180;53212;52.112;5.144;2023-12-28T12:24:20;100910.80;;;11.98
66403;BMP180;53212;52.112;5.144;2023-12-28T12:26:46;100899.00;;;12.00
66403;BMP180;53212;52.112;5.144;2023-12-28T12:29:12;100913.80;;;12.00
66403;BMP180;53212;52.112;5.144;2023-12-28T12:31:40;100908.20;;;12.00
66403;BMP180;53212;52.112;5.144;2023-12-28T12:34:10;100911.80;;;12.00
66403;BMP180;53212;52.112;5.144;2023-12-28T12:36:37;100898.00;;;12.00
66403;BMP180;53212;52.112;5.144;2023-12-28T12:39:04;100899.60;;;12.00
66403;BMP180;53212;52.112;5.144;2023-12-28T12:41:33;100909.80;;;12.00
66403;BMP180;53212;52.112;5.144;2023-12-28T12:43:59;100905.40;;;12.00
66403;BMP180;53212;52.112;5.144;2023-12-28T12:46:25;100902.60;;;12.00
66403;BMP180;53212;52.112;5.144;2023-12-28T12:48:58;100900.60;;;12.00
66403;BMP180;53212;52.112;5.144;2023-12-28T12:51:25;100902.40;;;12.00
66403;BMP180;53212;52.112;5.144;2023-12-28T12:54:00;100906.00;;;11.90
66403;BMP180;53212;52.112;5.144;2023-12-28T12:56:26;100907.00;;;11.88
66403;BMP180;53212;52.112;5.144;2023-12-28T12:58:54;100888.40;;;11.90
66403;BMP180;53212;52.112;5.144;2023-12-28T13:01:20;100885.20;;;11.90
66403;BMP180;53212;52.112;5.144;2023-12-28T13:03:46;100893.80;;;11.98
66403;BMP180;53212;52.112;5.144;2023-12-28T13:06:11;100885.20;;;12.00
66403;BMP180;53212;52.112;5.144;2023-12-28T13:08:37;100882.80;;;12.00
66403;BMP180;53212;52.112;5.144;2023-12-28T13:11:02;100899.00;;;11.90
66403;BMP180;53212;52.112;5.144;2023-12-28T13:13:28;100882.60;;;11.90
66403;BMP180;53212;52.112;5.144;2023-12-28T13:15:53;100882.60;;;11.90
66403;BMP180;53212;52.112;5.144;2023-12-28T13:18:19;100873.80;;;11.80
66403;BMP180;53212;52.112;5.144;2023-12-28T13:20:44;100879.60;;;11.80
66403;BMP180;53212;52.112;5.144;2023-12-28T13:23:11;100883.00;;;11.80
66403;BMP180;53212;52.112;5.144;2023-12-28T13:25:37;100878.60;;;11.80
66403;BMP180;53212;52.112;5.144;2023-12-28T13:28:03;100868.60;;;11.80
66403;BMP180;53212;52.112;5.144;2023-12-28T13:30:28;100891.40;;;11.72
66403;BMP180;53212;52.112;5.144;2023-12-28T13:32:55;100878.20;;;11.80
66403;BMP180;53212;52.112;5.144;2023-12-28T13:35:23;100879.40;;;11.80
66403;BMP180;53212;52.112;5.144;2023-12-28T13:37:49;100878.20;;;11.70
66403;BMP180;53212;52.112;5.144;2023-12-28T13:40:14;100883.00;;;11.70
66403;BMP180;53212;52.112;5.144;2023-12-28T13:42:41;100876.60;;;11.66
66403;BMP180;53212;52.112;5.144;2023-12-28T13:45:07;100882.40;;;11.60
66403;BMP180;53212;52.112;5.144;2023-12-28T13:47:33;100881.80;;;11.54
66403;BMP180;53212;52.112;5.144;2023-12-28T13:49:58;100877.60;;;11.50
66403;BMP180;53212;52.112;5.144;2023-12-28T13:52:24;100885.20;;;11.44
66403;BMP180;53212;52.112;5.144;2023-12-28T13:54:49;100890.00;;;11.40
66403;BMP180;53212;52.112;5.144;2023-12-28T13:57:14;100898.60;;;11.32
66403;BMP180;53212;52.112;5.144;2023-12-28T13:59:40;100898.60;;;11.30